sensor_id;sensor_type;location;lat;lon;timestamp;P1;durP1;ratioP1;P2;durP2;ratioP2
10991;SDS011;5549;47.028;15.514;2024-01-15T00:00:16;29.75;;;10.50;;
10991;SDS011;5549;47.028;15.514;2024-01-15T00:02:44;32.20;;;10.95;;
10991;SDS011;5549;47.028;15.514;2024-01-15T00:05:16;28.90;;;9.50;;
10991;SDS011;5549;47.028;15.514;2024-01-15T00:07:46;26.83;;;9.48;;
10991;SDS011;5549;47.028;15.514;2024-01-15T00:10:18;34.22;;;10.68;;
10991;SDS011;5549;47.028;15.514;2024-01-15T00:12:48;28.17;;;11.18;;
10991;SDS011;5549;47.028;15.514;2024-01-15T00:15:18;28.65;;;10.73;;
10991;SDS011;5549;47.028;15.514;2024-01-15T00:17:46;31.77;;;10.07;;
10991;SDS011;5549;47.028;15.514;2024-01-15T00:20:16;27.67;;;10.63;;
10991;SDS011;5549;47.028;15.514;2024-01-15T00:22:46;27.60;;;9.80;;
10991;SDS011;5549;47.028;15.514;2024-01-15T00:25:15;28.67;;;8.75;;
10991;SDS011;5549;47.028;15.514;2024-01-15T00:27:44;29.08;;;9.20;;
10991;SDS011;5549;47.028;15.514;2024-01-15T00:30:12;25.40;;;8.95;;
10991;SDS011;5549;47.028;15.514;2024-01-15T00:32:40;28.80;;;11.23;;
10991;SDS011;5549;47.028;15.514;2024-01-15T00:35:08;27.73;;;9.30;;
10991;SDS011;5549;47.028;15.514;2024-01-15T00:37:39;29.40;;;9.98;;
10991;SDS011;5549;47.028;15.514;2024-01-15T00:40:07;32.55;;;10.65;;
10991;SDS011;5549;47.028;15.514;2024-01-15T00:42:37;22.40;;;7.65;;
10991;SDS011;5549;47.028;15.514;2024-01-15T00:45:05;25.13;;;8.15;;
10991;SDS011;5549;47.028;15.514;2024-01-15T00:47:34;36.15;;;11.45;;
10991;SDS011;5549;47.028;15.514;2024-01-15T00:50:01;40.33;;;11.15;;
10991;SDS011;5549;47.028;15.514;2024-01-15T00:52:29;21.40;;;8.10;;
10991;SDS011;5549;47.028;15.514;2024-01-15T00:54:59;28.98;;;11.02;;
10991;SDS011;5549;47.028;15.514;2024-01-15T00:57:29;30.73;;;9.75;;
10991;SDS011;5549;47.028;15.514;2024-01-15T01:00:02;26.60;;;9.32;;
10991;SDS011;5549;47.028;15.514;2024-01-15T01:02:35;14.60;;;6.35;;
10991;SDS011;5549;47.028;15.514;2024-01-15T01:05:05;25.55;;;9.25;;
10991;SDS011;5549;47.028;15.514;2024-01-15T01:07:33;26.00;;;8.02;;
10991;SDS011;5549;47.028;15.514;2024-01-15T01:10:03;21.13;;;8.90;;
10991;SDS011;5549;47.028;15.514;2024-01-15T01:12:34;24.02;;;7.50;;
10991;SDS011;5549;47.028;15.514;2024-01-15T01:15:06;17.38;;;6.07;;
10991;SDS011;5549;47.028;15.514;2024-01-15T01:17:35;15.52;;;6.70;;
10991;SDS011;5549;47.028;15.514;2024-01-15T01:20:02;20.42;;;8.02;;
10991;SDS011;5549;47.028;15.514;2024-01-15T01:22:35;26.80;;;9.07;;
10991;SDS011;5549;47.028;15.514;2024-01-15T01:25:03;27.77;;;7.95;;
10991;SDS011;5549;47.028;15.514;2024-01-15T01:27:34;27.80;;;8.98;;
10991;SDS011;5549;47.028;15.514;2024-01-15T01:30:06;30.90;;;8.90;;
10991;SDS011;5549;47.028;15.514;2024-01-15T01:32:35;26.90;;;9.68;;
10991;SDS011;5549;47.028;15.514;2024-01-15T01:35:03;35.17;;;11.07;;
10991;SDS011;5549;47.028;15.514;2024-01-15T01:37:33;28.13;;;10.50;;
10991;SDS011;5549;47.028;15.514;2024-01-15T01:40:01;31.88;;;9.43;;
10991;SDS011;5549;47.028;15.514;2024-01-15T01:42:31;28.33;;;9.82;;
10991;SDS011;5549;47.028;15.514;2024-01-15T01:44:58;29.40;;;10.25;;
10991;SDS011;5549;47.028;15.514;2024-01-15T01:47:29;29.83;;;9.32;;
10991;SDS011;5549;47.028;15.514;2024-01-15T01:49:58;25.90;;;10.45;;
10991;SDS011;5549;47.028;15.514;2024-01-15T01:52:28;28.02;;;9.70;;
10991;SDS011;5549;47.028;15.514;2024-01-15T01:54:55;26.65;;;9.48;;
10991;SDS011;5549;47.028;15.514;2024-01-15T01:57:27;31.52;;;11.63;;
10991;SDS011;5549;47.028;15.514;2024-01-15T01:59:57;23.00;;;8.52;;
10991;SDS011;5549;47.028;15.514;2024-01-15T02:02:29;25.20;;;9.38;;
10991;SDS011;5549;47.028;15.514;2024-01-15T02:04:58;24.88;;;8.18;;
10991;SDS011;5549;47.028;15.514;2024-01-15T02:07:28;21.33;;;7.05;;
10991;SDS011;5549;47.028;15.514;2024-01-15T02:09:58;27.13;;;9.90;;
10991;SDS011;5549;47.028;15.514;2024-01-15T02:12:26;28.95;;;9.32;;
10991;SDS011;5549;47.028;15.514;2024-01-15T02:14:54;24.42;;;10.45;;
10991;SDS011;5549;47.028;15.514;2024-01-15T02:17:23;22.92;;;7.90;;
10991;SDS011;5549;47.028;15.514;2024-01-15T02:19:53;19.23;;;6.75;;
10991;SDS011;5549;47.028;15.514;2024-01-15T02:22:23;22.80;;;8.63;;
10991;SDS011;5549;47.028;15.514;2024-01-15T02:24:52;29.67;;;9.38;;
10991;SDS011;5549;47.028;15.514;2024-01-15T02:27:21;24.33;;;10.05;;
10991;SDS011;5549;47.028;15.514;2024-01-15T02:29:49;28.85;;;10.15;;
10991;SDS011;5549;47.028;15.514;2024-01-15T02:32:19;26.80;;;8.52;;
10991;SDS011;5549;47.028;15.514;2024-01-15T02:34:51;29.38;;;10.35;;
10991;SDS011;5549;47.028;15.514;2024-01-15T02:37:18;20.83;;;7.60;;
10991;SDS011;5549;47.028;15.514;2024-01-15T02:39:46;27.83;;;9.75;;
10991;SDS011;5549;47.028;15.514;2024-01-15T02:42:16;25.55;;;7.65;;
10991;SDS011;5549;47.028;15.514;2024-01-15T02:44:44;21.35;;;8.50;;
10991;SDS011;5549;47.028;15.514;2024-01-15T02:47:11;20.95;;;7.13;;
10991;SDS011;5549;47.028;15.514;2024-01-15T02:49:39;27.35;;;9.43;;
10991;SDS011;5549;47.028;15.514;2024-01-15T02:52:07;14.63;;;5.50;;
10991;SDS011;5549;47.028;15.514;2024-01-15T02:54:34;9.60;;;3.17;;
10991;SDS011;5549;47.028;15.514;2024-01-15T02:57:02;10.38;;;4.00;;
10991;SDS011;5549;47.028;15.514;2024-01-15T02:59:34;6.20;;;3.53;;
10991;SDS011;5549;47.028;15.514;2024-01-15T03:02:04;8.23;;;3.08;;
10991;SDS011;5549;47.028;15.514;2024-01-15T03:04:31;11.23;;;4.32;;
10991;SDS011;5549;47.028;15.514;2024-01-15T03:07:00;22.00;;;6.18;;
10991;SDS011;5549;47.028;15.514;2024-01-15T03:09:30;11.27;;;3.40;;
10991;SDS011;5549;47.028;15.514;2024-01-15T03:11:57;9.32;;;4.85;;
10991;SDS011;5549;47.028;15.514;2024-01-15T03:14:28;11.95;;;4.85;;
10991;SDS011;5549;47.028;15.514;2024-01-15T03:17:05;17.58;;;7.20;;
10991;SDS011;5549;47.028;15.514;2024-01-15T03:19:38;18.85;;;6.22;;
10991;SDS011;5549;47.028;15.514;2024-01-15T03:22:07;16.15;;;6.45;;
10991;SDS011;5549;47.028;15.514;2024-01-15T03:24:38;1.58;;;0.85;;
10991;SDS011;5549;47.028;15.514;2024-01-15T03:27:12;5.82;;;2.03;;
10991;SDS011;5549;47.028;15.514;2024-01-15T03:29:40;6.95;;;3.03;;
10991;SDS011;5549;47.028;15.514;2024-01-15T03:32:11;5.50;;;1.23;;
10991;SDS011;5549;47.028;15.514;2024-01-15T03:34:42;4.65;;;2.35;;
10991;SDS011;5549;47.028;15.514;2024-01-15T03:37:16;10.40;;;3.95;;
10991;SDS011;5549;47.028;15.514;2024-01-15T03:39:47;13.95;;;3.38;;
10991;SDS011;5549;47.028;15.514;2024-01-15T03:42:17;10.70;;;3.75;;
10991;SDS011;5549;47.028;15.514;2024-01-15T03:44:47;14.43;;;3.60;;
10991;SDS011;5549;47.028;15.514;2024-01-15T03:47:20;10.15;;;2.65;;
10991;SDS011;5549;47.028;15.514;2024-01-15T03:49:48;11.48;;;4.10;;
10991;SDS011;5549;47.028;15.514;2024-01-15T03:52:16;14.85;;;4.35;;
10991;SDS011;5549;47.028;15.514;2024-01-15T03:54:43;18.25;;;5.68;;
10991;SDS011;5549;47.028;15.514;2024-01-15T03:57:11;12.38;;;6.07;;
10991;SDS011;5549;47.028;15.514;2024-01-15T03:59:41;18.42;;;7.10;;
10991;SDS011;5549;47.028;15.514;2024-01-15T04:02:11;13.98;;;5.95;;
10991;SDS011;5549;47.028;15.514;2024-01-15T04:04:42;12.45;;;4.80;;
10991;SDS011;5549;47.028;15.514;2024-01-15T04:07:10;14.60;;;5.03;;
10991;SDS011;5549;47.028;15.514;2024-01-15T04:09:38;14.40;;;6.10;;
10991;SDS011;5549;47.028;15.514;2024-01-15T04:12:06;6.88;;;3.90;;
10991;SDS011;5549;47.028;15.514;2024-01-15T04:14:34;7.43;;;3.78;;
10991;SDS011;5549;47.028;15.514;2024-01-15T04:17:22;23.13;;;8.43;;
10991;SDS011;5549;47.028;15.514;2024-01-15T04:19:53;22.33;;;7.10;;
10991;SDS011;5549;47.028;15.514;2024-01-15T04:22:26;24.58;;;7.60;;
10991;SDS011;5549;47.028;15.514;2024-01-15T04:24:54;22.58;;;7.97;;
10991;SDS011;5549;47.028;15.514;2024-01-15T04:27:24;25.55;;;7.13;;
10991;SDS011;5549;47.028;15.514;2024-01-15T04:29:51;18.92;;;6.68;;
10991;SDS011;5549;47.028;15.514;2024-01-15T04:32:19;24.27;;;8.10;;
10991;SDS011;5549;47.028;15.514;2024-01-15T04:34:49;28.35;;;9.15;;
10991;SDS011;5549;47.028;15.514;2024-01-15T04:37:18;25.08;;;8.30;;
10991;SDS011;5549;47.028;15.514;2024-01-15T04:39:45;24.58;;;8.20;;
10991;SDS011;5549;47.028;15.514;2024-01-15T04:42:13;23.30;;;8.57;;
10991;SDS011;5549;47.028;15.514;2024-01-15T04:44:40;14.77;;;4.90;;
10991;SDS011;5549;47.028;15.514;2024-01-15T04:47:08;20.17;;;8.18;;
10991;SDS011;5549;47.028;15.514;2024-01-15T04:49:36;24.33;;;8.05;;
10991;SDS011;5549;47.028;15.514;2024-01-15T04:52:06;22.23;;;8.82;;
10991;SDS011;5549;47.028;15.514;2024-01-15T04:54:36;20.55;;;7.30;;
10991;SDS011;5549;47.028;15.514;2024-01-15T04:57:04;21.42;;;8.55;;
10991;SDS011;5549;47.028;15.514;2024-01-15T04:59:32;15.60;;;3.90;;
10991;SDS011;5549;47.028;15.514;2024-01-15T05:02:01;20.23;;;7.28;;
10991;SDS011;5549;47.028;15.514;2024-01-15T05:04:29;14.85;;;5.38;;
10991;SDS011;5549;47.028;15.514;2024-01-15T05:06:58;21.27;;;8.20;;
10991;SDS011;5549;47.028;15.514;2024-01-15T05:09:28;6.90;;;2.55;;
10991;SDS011;5549;47.028;15.514;2024-01-15T05:11:57;23.02;;;8.82;;
10991;SDS011;5549;47.028;15.514;2024-01-15T05:14:27;26.30;;;7.68;;
10991;SDS011;5549;47.028;15.514;2024-01-15T05:16:54;22.77;;;8.43;;
10991;SDS011;5549;47.028;15.514;2024-01-15T05:19:22;23.20;;;8.18;;
10991;SDS011;5549;47.028;15.514;2024-01-15T05:21:49;28.48;;;8.27;;
10991;SDS011;5549;47.028;15.514;2024-01-15T05:24:17;22.05;;;8.48;;
10991;SDS011;5549;47.028;15.514;2024-01-15T05:26:46;11.30;;;5.03;;
10991;SDS011;5549;47.028;15.514;2024-01-15T05:29:18;24.83;;;8.13;;
10991;SDS011;5549;47.028;15.514;2024-01-15T05:31:48;23.90;;;7.57;;
10991;SDS011;5549;47.028;15.514;2024-01-15T05:34:15;15.80;;;5.25;;
10991;SDS011;5549;47.028;15.514;2024-01-15T05:36:43;18.40;;;7.50;;
10991;SDS011;5549;47.028;15.514;2024-01-15T05:39:13;15.90;;;5.05;;
10991;SDS011;5549;47.028;15.514;2024-01-15T05:41:40;12.82;;;4.15;;
10991;SDS011;5549;47.028;15.514;2024-01-15T05:44:08;16.73;;;4.80;;
10991;SDS011;5549;47.028;15.514;2024-01-15T05:46:39;18.17;;;6.03;;
10991;SDS011;5549;47.028;15.514;2024-01-15T05:49:09;13.15;;;3.72;;
10991;SDS011;5549;47.028;15.514;2024-01-15T05:51:39;17.42;;;5.30;;
10991;SDS011;5549;47.028;15.514;2024-01-15T05:54:09;14.25;;;5.93;;
10991;SDS011;5549;47.028;15.514;2024-01-15T05:56:39;16.17;;;6.43;;
10991;SDS011;5549;47.028;15.514;2024-01-15T05:59:06;19.15;;;6.38;;
10991;SDS011;5549;47.028;15.514;2024-01-15T06:01:36;17.65;;;5.78;;
10991;SDS011;5549;47.028;15.514;2024-01-15T06:04:05;6.18;;;2.25;;
10991;SDS011;5549;47.028;15.514;2024-01-15T06:06:35;12.30;;;4.07;;
10991;SDS011;5549;47.028;15.514;2024-01-15T06:09:05;12.63;;;4.85;;
10991;SDS011;5549;47.028;15.514;2024-01-15T06:11:32;14.68;;;3.60;;
10991;SDS011;5549;47.028;15.514;2024-01-15T06:14:00;8.25;;;3.10;;
10991;SDS011;5549;47.028;15.514;2024-01-15T06:16:31;12.05;;;4.35;;
10991;SDS011;5549;47.028;15.514;2024-01-15T06:19:01;2.05;;;1.63;;
10991;SDS011;5549;47.028;15.514;2024-01-15T06:21:32;9.93;;;3.25;;
10991;SDS011;5549;47.028;15.514;2024-01-15T06:24:01;8.52;;;2.47;;
10991;SDS011;5549;47.028;15.514;2024-01-15T06:26:29;8.82;;;3.28;;
10991;SDS011;5549;47.028;15.514;2024-01-15T06:28:57;12.25;;;2.92;;
10991;SDS011;5549;47.028;15.514;2024-01-15T06:31:24;6.70;;;2.13;;
10991;SDS011;5549;47.028;15.514;2024-01-15T06:33:55;9.80;;;2.95;;
10991;SDS011;5549;47.028;15.514;2024-01-15T06:36:22;8.32;;;3.70;;
10991;SDS011;5549;47.028;15.514;2024-01-15T06:38:54;12.30;;;4.43;;
10991;SDS011;5549;47.028;15.514;2024-01-15T06:41:24;15.13;;;4.28;;
10991;SDS011;5549;47.028;15.514;2024-01-15T06:43:52;20.27;;;7.18;;
10991;SDS011;5549;47.028;15.514;2024-01-15T06:46:21;16.17;;;6.32;;
10991;SDS011;5549;47.028;15.514;2024-01-15T06:48:51;16.35;;;5.45;;
10991;SDS011;5549;47.028;15.514;2024-01-15T06:51:18;13.93;;;5.18;;
10991;SDS011;5549;47.028;15.514;2024-01-15T06:53:46;24.65;;;7.13;;
10991;SDS011;5549;47.028;15.514;2024-01-15T06:56:17;8.77;;;4.22;;
10991;SDS011;5549;47.028;15.514;2024-01-15T06:58:47;21.00;;;7.03;;
10991;SDS011;5549;47.028;15.514;2024-01-15T07:01:16;19.90;;;6.40;;
10991;SDS011;5549;47.028;15.514;2024-01-15T07:03:46;13.23;;;5.05;;
10991;SDS011;5549;47.028;15.514;2024-01-15T07:06:14;13.70;;;5.38;;
10991;SDS011;5549;47.028;15.514;2024-01-15T07:08:42;18.50;;;5.80;;
10991;SDS011;5549;47.028;15.514;2024-01-15T07:11:12;14.23;;;4.05;;
10991;SDS011;5549;47.028;15.514;2024-01-15T07:13:42;20.35;;;6.43;;
10991;SDS011;5549;47.028;15.514;2024-01-15T07:16:12;23.88;;;6.90;;
10991;SDS011;5549;47.028;15.514;2024-01-15T07:18:41;21.13;;;7.82;;
10991;SDS011;5549;47.028;15.514;2024-01-15T07:21:08;20.73;;;7.63;;
10991;SDS011;5549;47.028;15.514;2024-01-15T07:23:36;23.30;;;7.00;;
10991;SDS011;5549;47.028;15.514;2024-01-15T07:26:06;17.95;;;6.10;;
10991;SDS011;5549;47.028;15.514;2024-01-15T07:28:34;12.07;;;4.60;;
10991;SDS011;5549;47.028;15.514;2024-01-15T07:31:03;21.92;;;8.35;;
10991;SDS011;5549;47.028;15.514;2024-01-15T07:33:32;20.05;;;7.57;;
10991;SDS011;5549;47.028;15.514;2024-01-15T07:36:02;20.38;;;7.43;;
10991;SDS011;5549;47.028;15.514;2024-01-15T07:38:30;24.10;;;8.07;;
10991;SDS011;5549;47.028;15.514;2024-01-15T07:40:58;20.63;;;7.63;;
10991;SDS011;5549;47.028;15.514;2024-01-15T07:43:26;26.50;;;10.65;;
10991;SDS011;5549;47.028;15.514;2024-01-15T07:45:54;17.23;;;6.00;;
10991;SDS011;5549;47.028;15.514;2024-01-15T07:48:22;19.55;;;6.95;;
10991;SDS011;5549;47.028;15.514;2024-01-15T07:50:49;19.17;;;7.40;;
10991;SDS011;5549;47.028;15.514;2024-01-15T07:53:20;18.45;;;7.65;;
10991;SDS011;5549;47.028;15.514;2024-01-15T07:55:50;18.10;;;6.70;;
10991;SDS011;5549;47.028;15.514;2024-01-15T07:58:19;14.70;;;5.95;;
10991;SDS011;5549;47.028;15.514;2024-01-15T08:00:49;18.25;;;6.40;;
10991;SDS011;5549;47.028;15.514;2024-01-15T08:03:19;11.25;;;3.95;;
10991;SDS011;5549;47.028;15.514;2024-01-15T08:05:48;16.05;;;5.93;;
10991;SDS011;5549;47.028;15.514;2024-01-15T08:08:21;24.02;;;8.30;;
10991;SDS011;5549;47.028;15.514;2024-01-15T08:10:51;19.80;;;7.90;;
10991;SDS011;5549;47.028;15.514;2024-01-15T08:13:18;20.40;;;6.30;;
10991;SDS011;5549;47.028;15.514;2024-01-15T08:15:46;20.73;;;8.23;;
10991;SDS011;5549;47.028;15.514;2024-01-15T08:18:15;19.52;;;7.28;;
10991;SDS011;5549;47.028;15.514;2024-01-15T08:20:51;17.30;;;7.35;;
10991;SDS011;5549;47.028;15.514;2024-01-15T08:23:19;20.33;;;6.88;;
10991;SDS011;5549;47.028;15.514;2024-01-15T08:25:47;11.70;;;4.47;;
10991;SDS011;5549;47.028;15.514;2024-01-15T08:28:16;19.33;;;7.40;;
10991;SDS011;5549;47.028;15.514;2024-01-15T08:30:46;19.00;;;6.95;;
10991;SDS011;5549;47.028;15.514;2024-01-15T08:33:16;17.20;;;6.55;;
10991;SDS011;5549;47.028;15.514;2024-01-15T08:35:44;19.23;;;6.50;;
10991;SDS011;5549;47.028;15.514;2024-01-15T08:38:16;15.65;;;6.43;;
10991;SDS011;5549;47.028;15.514;2024-01-15T08:40:43;17.13;;;5.80;;
10991;SDS011;5549;47.028;15.514;2024-01-15T08:43:10;16.67;;;6.72;;
10991;SDS011;5549;47.028;15.514;2024-01-15T08:45:40;16.98;;;6.65;;
10991;SDS011;5549;47.028;15.514;2024-01-15T08:48:08;15.93;;;6.22;;
10991;SDS011;5549;47.028;15.514;2024-01-15T08:50:35;13.35;;;5.20;;
10991;SDS011;5549;47.028;15.514;2024-01-15T08:53:05;14.55;;;6.22;;
10991;SDS011;5549;47.028;15.514;2024-01-15T08:55:34;9.63;;;4.18;;
10991;SDS011;5549;47.028;15.514;2024-01-15T08:58:04;11.77;;;4.22;;
10991;SDS011;5549;47.028;15.514;2024-01-15T09:00:33;13.35;;;5.10;;
10991;SDS011;5549;47.028;15.514;2024-01-15T09:03:00;13.80;;;5.28;;
10991;SDS011;5549;47.028;15.514;2024-01-15T09:05:30;11.95;;;4.78;;
10991;SDS011;5549;47.028;15.514;2024-01-15T09:07:58;12.02;;;4.68;;
10991;SDS011;5549;47.028;15.514;2024-01-15T09:10:26;14.73;;;5.30;;
10991;SDS011;5549;47.028;15.514;2024-01-15T09:12:57;17.08;;;6.72;;
10991;SDS011;5549;47.028;15.514;2024-01-15T09:15:25;15.23;;;5.95;;
10991;SDS011;5549;47.028;15.514;2024-01-15T09:17:55;12.50;;;5.45;;
10991;SDS011;5549;47.028;15.514;2024-01-15T09:20:26;15.15;;;5.68;;
10991;SDS011;5549;47.028;15.514;2024-01-15T09:22:54;14.30;;;5.20;;
10991;SDS011;5549;47.028;15.514;2024-01-15T09:25:24;14.00;;;5.72;;
10991;SDS011;5549;47.028;15.514;2024-01-15T09:27:54;16.13;;;5.95;;
10991;SDS011;5549;47.028;15.514;2024-01-15T09:30:26;15.00;;;6.38;;
10991;SDS011;5549;47.028;15.514;2024-01-15T09:32:55;16.73;;;7.22;;
10991;SDS011;5549;47.028;15.514;2024-01-15T09:35:23;15.10;;;6.57;;
10991;SDS011;5549;47.028;15.514;2024-01-15T09:37:51;12.80;;;5.20;;
10991;SDS011;5549;47.028;15.514;2024-01-15T09:40:21;13.93;;;4.88;;
10991;SDS011;5549;47.028;15.514;2024-01-15T09:42:50;12.35;;;4.85;;
10991;SDS011;5549;47.028;15.514;2024-01-15T09:45:22;13.85;;;4.57;;
10991;SDS011;5549;47.028;15.514;2024-01-15T09:47:50;13.02;;;5.07;;
10991;SDS011;5549;47.028;15.514;2024-01-15T09:50:18;11.25;;;4.82;;
10991;SDS011;5549;47.028;15.514;2024-01-15T09:52:51;11.70;;;5.10;;
10991;SDS011;5549;47.028;15.514;2024-01-15T09:55:24;15.13;;;6.43;;
10991;SDS011;5549;47.028;15.514;2024-01-15T09:57:52;14.52;;;6.70;;
10991;SDS011;5549;47.028;15.514;2024-01-15T10:00:23;14.52;;;6.57;;
10991;SDS011;5549;47.028;15.514;2024-01-15T10:02:56;16.63;;;6.97;;
10991;SDS011;5549;47.028;15.514;2024-01-15T10:05:28;18.48;;;7.95;;
10991;SDS011;5549;47.028;15.514;2024-01-15T10:07:56;22.23;;;8.63;;
10991;SDS011;5549;47.028;15.514;2024-01-15T10:10:26;20.48;;;9.18;;
10991;SDS011;5549;47.028;15.514;2024-01-15T10:12:54;21.05;;;9.73;;
10991;SDS011;5549;47.028;15.514;2024-01-15T10:15:26;23.35;;;10.73;;
10991;SDS011;5549;47.028;15.514;2024-01-15T10:17:56;24.17;;;10.68;;
10991;SDS011;5549;47.028;15.514;2024-01-15T10:20:24;21.35;;;10.50;;
10991;SDS011;5549;47.028;15.514;2024-01-15T10:22:54;24.38;;;10.55;;
10991;SDS011;5549;47.028;15.514;2024-01-15T10:25:25;23.45;;;9.38;;
10991;SDS011;5549;47.028;15.514;2024-01-15T10:27:59;19.92;;;9.13;;
10991;SDS011;5549;47.028;15.514;2024-01-15T10:30:29;19.35;;;8.75;;
10991;SDS011;5549;47.028;15.514;2024-01-15T10:32:59;14.05;;;6.50;;
10991;SDS011;5549;47.028;15.514;2024-01-15T10:35:28;12.80;;;5.28;;
10991;SDS011;5549;47.028;15.514;2024-01-15T10:37:57;13.63;;;4.78;;
10991;SDS011;5549;47.028;15.514;2024-01-15T10:40:32;20.08;;;8.57;;
10991;SDS011;5549;47.028;15.514;2024-01-15T10:43:02;16.90;;;8.43;;
10991;SDS011;5549;47.028;15.514;2024-01-15T10:45:34;10.05;;;4.40;;
10991;SDS011;5549;47.028;15.514;2024-01-15T10:48:04;15.15;;;7.60;;
10991;SDS011;5549;47.028;15.514;2024-01-15T10:50:35;13.48;;;5.78;;
10991;SDS011;5549;47.028;15.514;2024-01-15T10:53:03;12.15;;;4.30;;
10991;SDS011;5549;47.028;15.514;2024-01-15T10:55:34;8.15;;;3.58;;
10991;SDS011;5549;47.028;15.514;2024-01-15T10:58:04;10.80;;;5.13;;
10991;SDS011;5549;47.028;15.514;2024-01-15T11:00:38;8.63;;;3.83;;
10991;SDS011;5549;47.028;15.514;2024-01-15T11:03:05;8.35;;;3.90;;
10991;SDS011;5549;47.028;15.514;2024-01-15T11:05:36;7.53;;;3.13;;
10991;SDS011;5549;47.028;15.514;2024-01-15T11:08:05;7.60;;;3.10;;
10991;SDS011;5549;47.028;15.514;2024-01-15T11:10:43;11.40;;;4.28;;
10991;SDS011;5549;47.028;15.514;2024-01-15T11:13:15;10.18;;;4.00;;
10991;SDS011;5549;47.028;15.514;2024-01-15T11:16:02;8.65;;;3.67;;
10991;SDS011;5549;47.028;15.514;2024-01-15T11:18:34;9.35;;;3.67;;
10991;SDS011;5549;47.028;15.514;2024-01-15T11:21:19;9.70;;;3.13;;
10991;SDS011;5549;47.028;15.514;2024-01-15T11:23:52;8.70;;;3.35;;
10991;SDS011;5549;47.028;15.514;2024-01-15T11:26:28;9.43;;;3.05;;
10991;SDS011;5549;47.028;15.514;2024-01-15T11:29:01;8.07;;;3.42;;
10991;SDS011;5549;47.028;15.514;2024-01-15T11:34:53;9.07;;;3.15;;
10991;SDS011;5549;47.028;15.514;2024-01-15T11:37:29;6.25;;;2.67;;
10991;SDS011;5549;47.028;15.514;2024-01-15T11:40:37;7.28;;;2.88;;
10991;SDS011;5549;47.028;15.514;2024-01-15T11:43:10;7.95;;;3.08;;
10991;SDS011;5549;47.028;15.514;2024-01-15T11:45:40;7.25;;;2.78;;
10991;SDS011;5549;47.028;15.514;2024-01-15T11:48:13;6.53;;;3.22;;
10991;SDS011;5549;47.028;15.514;2024-01-15T11:50:42;7.35;;;2.97;;
10991;SDS011;5549;47.028;15.514;2024-01-15T11:53:21;6.20;;;2.72;;
10991;SDS011;5549;47.028;15.514;2024-01-15T11:56:02;6.28;;;2.42;;
10991;SDS011;5549;47.028;15.514;2024-01-15T11:58:35;7.43;;;2.78;;
10991;SDS011;5549;47.028;15.514;2024-01-15T12:01:05;8.35;;;2.88;;
10991;SDS011;5549;47.028;15.514;2024-01-15T12:03:37;7.57;;;2.88;;
10991;SDS011;5549;47.028;15.514;2024-01-15T12:06:07;5.90;;;2.15;;
10991;SDS011;5549;47.028;15.514;2024-01-15T12:08:36;4.93;;;1.85;;
10991;SDS011;5549;47.028;15.514;2024-01-15T12:11:05;7.30;;;2.72;;
10991;SDS011;5549;47.028;15.514;2024-01-15T12:13:39;6.22;;;2.63;;
10991;SDS011;5549;47.028;15.514;2024-01-15T12:16:07;8.13;;;3.20;;
10991;SDS011;5549;47.028;15.514;2024-01-15T12:18:38;9.40;;;3.28;;
10991;SDS011;5549;47.028;15.514;2024-01-15T12:21:07;7.25;;;2.40;;
10991;SDS011;5549;47.028;15.514;2024-01-15T12:23:38;6.07;;;2.85;;
10991;SDS011;5549;47.028;15.514;2024-01-15T12:26:06;6.68;;;2.80;;
10991;SDS011;5549;47.028;15.514;2024-01-15T12:28:34;5.22;;;2.05;;
10991;SDS011;5549;47.028;15.514;2024-01-15T12:31:06;8.35;;;2.85;;
10991;SDS011;5549;47.028;15.514;2024-01-15T12:33:36;7.82;;;2.75;;
10991;SDS011;5549;47.028;15.514;2024-01-15T12:36:05;9.57;;;3.22;;
10991;SDS011;5549;47.028;15.514;2024-01-15T12:38:35;7.55;;;2.53;;
10991;SDS011;5549;47.028;15.514;2024-01-15T12:41:03;9.05;;;3.33;;
10991;SDS011;5549;47.028;15.514;2024-01-15T12:43:31;5.13;;;2.15;;
10991;SDS011;5549;47.028;15.514;2024-01-15T12:46:01;7.90;;;3.00;;
10991;SDS011;5549;47.028;15.514;2024-01-15T12:48:30;4.65;;;1.58;;
10991;SDS011;5549;47.028;15.514;2024-01-15T12:51:00;8.68;;;2.97;;
10991;SDS011;5549;47.028;15.514;2024-01-15T12:53:27;8.40;;;3.13;;
10991;SDS011;5549;47.028;15.514;2024-01-15T12:55:55;7.93;;;2.92;;
10991;SDS011;5549;47.028;15.514;2024-01-15T12:58:24;6.65;;;2.60;;
10991;SDS011;5549;47.028;15.514;2024-01-15T13:00:52;8.45;;;2.97;;
10991;SDS011;5549;47.028;15.514;2024-01-15T13:03:22;11.25;;;2.92;;
10991;SDS011;5549;47.028;15.514;2024-01-15T13:05:49;8.40;;;2.90;;
10991;SDS011;5549;47.028;15.514;2024-01-15T13:08:19;8.23;;;2.97;;
10991;SDS011;5549;47.028;15.514;2024-01-15T13:10:49;8.60;;;3.58;;
10991;SDS011;5549;47.028;15.514;2024-01-15T13:13:17;6.78;;;2.75;;
10991;SDS011;5549;47.028;15.514;2024-01-15T13:15:47;7.78;;;3.00;;
10991;SDS011;5549;47.028;15.514;2024-01-15T13:18:17;8.55;;;3.58;;
10991;SDS011;5549;47.028;15.514;2024-01-15T13:20:44;9.65;;;3.58;;
10991;SDS011;5549;47.028;15.514;2024-01-15T13:23:14;10.60;;;3.90;;
10991;SDS011;5549;47.028;15.514;2024-01-15T13:25:43;9.65;;;3.15;;
10991;SDS011;5549;47.028;15.514;2024-01-15T13:28:13;7.70;;;3.30;;
10991;SDS011;5549;47.028;15.514;2024-01-15T13:30:40;6.90;;;2.97;;
10991;SDS011;5549;47.028;15.514;2024-01-15T13:33:08;6.15;;;2.70;;
10991;SDS011;5549;47.028;15.514;2024-01-15T13:35:36;7.70;;;2.75;;
10991;SDS011;5549;47.028;15.514;2024-01-15T13:38:04;7.43;;;2.78;;
10991;SDS011;5549;47.028;15.514;2024-01-15T13:40:31;6.78;;;2.80;;
10991;SDS011;5549;47.028;15.514;2024-01-15T13:43:03;8.27;;;2.97;;
10991;SDS011;5549;47.028;15.514;2024-01-15T13:45:35;15.77;;;5.80;;
10991;SDS011;5549;47.028;15.514;2024-01-15T13:48:03;8.88;;;2.83;;
10991;SDS011;5549;47.028;15.514;2024-01-15T13:50:35;3.15;;;1.25;;
10991;SDS011;5549;47.028;15.514;2024-01-15T13:53:03;6.75;;;2.40;;
10991;SDS011;5549;47.028;15.514;2024-01-15T13:55:31;4.10;;;1.77;;
10991;SDS011;5549;47.028;15.514;2024-01-15T13:58:03;5.32;;;2.08;;
10991;SDS011;5549;47.028;15.514;2024-01-15T14:00:31;6.45;;;2.13;;
10991;SDS011;5549;47.028;15.514;2024-01-15T14:02:58;6.15;;;1.50;;
10991;SDS011;5549;47.028;15.514;2024-01-15T14:05:28;6.45;;;1.77;;
10991;SDS011;5549;47.028;15.514;2024-01-15T14:07:58;5.68;;;2.10;;
10991;SDS011;5549;47.028;15.514;2024-01-15T14:10:26;6.07;;;1.95;;
10991;SDS011;5549;47.028;15.514;2024-01-15T14:12:56;4.32;;;1.27;;
10991;SDS011;5549;47.028;15.514;2024-01-15T14:15:25;6.70;;;2.15;;
10991;SDS011;5549;47.028;15.514;2024-01-15T14:17:55;4.82;;;2.10;;
10991;SDS011;5549;47.028;15.514;2024-01-15T14:20:23;4.45;;;1.65;;
10991;SDS011;5549;47.028;15.514;2024-01-15T14:22:50;5.05;;;2.13;;
10991;SDS011;5549;47.028;15.514;2024-01-15T14:25:20;5.93;;;1.90;;
10991;SDS011;5549;47.028;15.514;2024-01-15T14:27:49;5.78;;;1.98;;
10991;SDS011;5549;47.028;15.514;2024-01-15T14:30:17;6.20;;;1.75;;
10991;SDS011;5549;47.028;15.514;2024-01-15T14:32:48;5.95;;;2.33;;
10991;SDS011;5549;47.028;15.514;2024-01-15T14:35:16;6.68;;;1.88;;
10991;SDS011;5549;47.028;15.514;2024-01-15T14:37:46;7.75;;;2.35;;
10991;SDS011;5549;47.028;15.514;2024-01-15T14:40:13;5.75;;;1.98;;
10991;SDS011;5549;47.028;15.514;2024-01-15T14:42:43;6.25;;;2.17;;
10991;SDS011;5549;47.028;15.514;2024-01-15T14:45:13;7.75;;;2.15;;
10991;SDS011;5549;47.028;15.514;2024-01-15T14:47:41;6.25;;;2.28;;
10991;SDS011;5549;47.028;15.514;2024-01-15T14:50:11;4.10;;;2.03;;
10991;SDS011;5549;47.028;15.514;2024-01-15T14:52:38;6.90;;;2.13;;
10991;SDS011;5549;47.028;15.514;2024-01-15T14:55:09;5.38;;;2.05;;